Terminal Aerodrome Forecast
Issued by NWS Springfield, MO

Home | Current Version | Previous Version | Text Only | Print | Product List | Glossary On
Versions: 1 2 3 4 5 6 7 8 9 10 11 12 13 14 15 16 17 18 19 20 21 22 23 24 25 26
000
FTUS43 KSGF 172249 AAC
TAFSGF
TAF AMD
KSGF 172249Z 1723/1818 18015KT P6SM OVC030
     FM180400 20022G30KT P6SM OVC035
     FM181200 26017G25KT P6SM VCSH OVC030
     FM181500 32026G36KT P6SM VCSH OVC025=

USA.gov is the U.S. government's official web portal to all federal, state and local government web resources and services.